Time;durP1;ratioP1;P1;durP2;ratioP2;P2;SDS_P1;SDS_P2;PMS_P1;PMS_P2;Temp;Humidity;BMP_temperature;BMP_pressure;BME280_temperature;BME280_humidity;BME280_pressure;Samples;Min_cycle;Max_cycle;Signal;HPM_P1;HPM_P2
2023/07/11 00:00:49;;;;;;;3.42;1.25;;;16.80;99.90;;;;;;5110320;28;20105;-86
2023/07/11 00:03:15;;;;;;;4.40;1.00;;;16.90;99.90;;;;;;5076911;28;20039;-87
2023/07/11 00:05:42;;;;;;;4.72;1.40;;;16.90;99.90;;;;;;5076597;28;20040;-87
2023/07/11 00:08:09;;;;;;;4.68;1.40;;;16.80;99.90;;;;;;5076699;28;20044;-86
2023/07/11 00:10:36;;;;;;;5.00;1.17;;;16.90;99.90;;;;;;5076658;28;20046;-87
2023/07/11 00:13:02;;;;;;;6.05;1.40;;;16.80;99.90;;;;;;5059898;28;20055;-86
2023/07/11 00:15:29;;;;;;;7.28;1.23;;;16.80;99.90;;;;;;5076116;28;20032;-87
2023/07/11 00:17:56;;;;;;;4.20;1.27;;;16.80;99.90;;;;;;5078831;28;20047;-87
2023/07/11 00:20:23;;;;;;;3.53;1.40;;;16.80;99.90;;;;;;5113765;28;20724;-87
2023/07/11 00:22:49;;;;;;;3.53;1.30;;;16.80;99.90;;;;;;5112865;28;20160;-86
2023/07/11 00:25:16;;;;;;;4.15;1.38;;;16.80;99.90;;;;;;5080148;28;20093;-87
2023/07/11 00:27:43;;;;;;;4.18;1.27;;;16.80;99.90;;;;;;5079609;28;20039;-87
2023/07/11 00:30:10;;;;;;;2.85;1.30;;;16.80;99.90;;;;;;5095976;28;20048;-86
2023/07/11 00:32:37;;;;;;;4.25;1.40;;;16.80;99.90;;;;;;5076159;28;20036;-86
2023/07/11 00:35:04;;;;;;;6.05;1.42;;;16.80;99.90;;;;;;5076442;28;20040;-86
2023/07/11 00:37:30;;;;;;;3.80;1.30;;;16.80;99.90;;;;;;5076409;28;20066;-87
2023/07/11 00:39:57;;;;;;;2.97;1.40;;;16.80;99.90;;;;;;5088096;28;20035;-87
2023/07/11 00:42:24;;;;;;;4.68;1.50;;;16.80;99.90;;;;;;5080177;28;20487;-87
2023/07/11 00:44:57;;;;;;;6.30;1.40;;;16.80;99.90;;;;;;5113179;28;20499;-87
2023/07/11 00:47:26;;;;;;;6.05;1.27;;;16.80;99.90;;;;;;5113227;28;20516;-87
2023/07/11 00:50:04;;;;;;;4.50;1.42;;;16.80;99.90;;;;;;5112966;28;20499;-87
2023/07/11 00:52:33;;;;;;;6.25;1.20;;;16.80;99.90;;;;;;5112879;28;20044;-86
2023/07/11 00:55:03;;;;;;;5.57;1.50;;;16.90;99.90;;;;;;5113075;28;20046;-87
2023/07/11 00:57:34;;;;;;;4.00;1.33;;;16.80;99.90;;;;;;5113102;28;20044;-87
2023/07/11 01:00:01;;;;;;;4.82;1.40;;;16.80;99.90;;;;;;5113445;28;20056;-87
2023/07/11 01:02:29;;;;;;;3.67;1.45;;;16.80;99.90;;;;;;5113255;28;20039;-88
2023/07/11 01:04:55;;;;;;;2.97;1.30;;;16.70;99.90;;;;;;5112741;28;20036;-87
2023/07/11 01:07:26;;;;;;;2.88;1.35;;;16.70;99.90;;;;;;5113092;28;20073;-87
2023/07/11 01:09:53;;;;;;;6.50;1.65;;;16.70;99.90;;;;;;5111325;28;20051;-87
2023/07/11 01:12:20;;;;;;;5.65;1.60;;;16.70;99.90;;;;;;5129359;28;20108;-87
2023/07/11 01:14:49;;;;;;;7.05;1.88;;;16.70;99.90;;;;;;5112226;28;20134;-86
2023/07/11 01:17:20;;;;;;;6.35;1.60;;;16.70;99.90;;;;;;5112773;28;20451;-86
2023/07/11 01:19:46;;;;;;;4.20;1.60;;;16.70;99.90;;;;;;5095397;28;20042;-87
2023/07/11 01:22:13;;;;;;;4.70;1.40;;;16.70;99.90;;;;;;5073910;28;20751;-87
2023/07/11 01:24:40;;;;;;;4.07;1.83;;;16.70;99.90;;;;;;5055626;28;20043;-87
2023/07/11 01:27:07;;;;;;;6.05;1.80;;;16.70;99.90;;;;;;5056185;28;20076;-87
2023/07/11 01:29:36;;;;;;;5.43;1.70;;;16.70;99.90;;;;;;5056373;28;20177;-88
2023/07/11 01:32:03;;;;;;;4.32;1.85;;;16.80;99.90;;;;;;5095294;28;20040;-88
2023/07/11 01:34:30;;;;;;;4.68;1.67;;;16.80;99.90;;;;;;5095915;28;20039;-87
2023/07/11 01:36:57;;;;;;;5.13;1.73;;;16.80;99.90;;;;;;5095596;28;20527;-88
2023/07/11 01:39:23;;;;;;;4.20;1.65;;;16.90;99.90;;;;;;5058750;28;20051;-88
2023/07/11 01:41:50;;;;;;;3.72;1.23;;;17.00;99.90;;;;;;5099444;28;20384;-88
2023/07/11 01:44:17;;;;;;;4.72;1.70;;;17.00;99.90;;;;;;5079538;28;20074;-87
2023/07/11 01:46:44;;;;;;;3.13;1.30;;;17.00;99.90;;;;;;5078352;28;20174;-87
2023/07/11 01:49:10;;;;;;;4.72;1.58;;;17.00;99.90;;;;;;5062648;28;20059;-88
2023/07/11 01:51:37;;;;;;;7.05;1.60;;;16.90;99.90;;;;;;5083586;28;20044;-87
2023/07/11 01:54:04;;;;;;;3.83;1.48;;;17.00;99.90;;;;;;5080945;28;20043;-87
2023/07/11 01:56:31;;;;;;;4.55;1.80;;;16.90;99.90;;;;;;5116273;28;20044;-88
2023/07/11 01:58:57;;;;;;;3.45;1.45;;;16.90;99.90;;;;;;5082649;28;20058;-88
2023/07/11 02:01:24;;;;;;;5.68;1.77;;;16.90;99.90;;;;;;5115868;28;20130;-87
2023/07/11 02:03:51;;;;;;;5.30;1.50;;;16.90;99.90;;;;;;5093677;28;20093;-88
2023/07/11 02:06:17;;;;;;;5.47;1.60;;;16.90;99.90;;;;;;5075533;28;20136;-88
2023/07/11 02:08:44;;;;;;;4.60;1.60;;;16.90;99.90;;;;;;5041801;28;20047;-88
2023/07/11 02:11:11;;;;;;;3.67;1.55;;;16.90;99.90;;;;;;5075365;28;20040;-88
2023/07/11 02:13:40;;;;;;;7.05;1.65;;;16.90;99.90;;;;;;5104802;28;20491;-88
2023/07/11 02:16:07;;;;;;;13.07;1.85;;;17.00;99.90;;;;;;5081108;28;20072;-87
2023/07/11 02:18:34;;;;;;;5.63;1.50;;;17.00;99.90;;;;;;5079173;28;20040;-87
2023/07/11 02:21:01;;;;;;;4.65;1.55;;;17.00;99.90;;;;;;5062315;28;20029;-88
2023/07/11 02:23:27;;;;;;;6.25;1.70;;;17.10;99.90;;;;;;5089086;28;20461;-88
2023/07/11 02:25:54;;;;;;;6.38;1.60;;;17.10;99.90;;;;;;5115102;28;20040;-88
2023/07/11 02:28:22;;;;;;;6.68;1.90;;;17.10;99.90;;;;;;5115719;28;20039;-87
2023/07/11 02:30:49;;;;;;;6.07;1.50;;;17.10;99.90;;;;;;5131402;28;20122;-87
2023/07/11 02:33:15;;;;;;;3.67;1.40;;;17.10;99.90;;;;;;5114840;28;20472;-87
2023/07/11 02:35:42;;;;;;;6.97;1.40;;;17.10;99.90;;;;;;5114636;28;20043;-87
2023/07/11 02:38:09;;;;;;;4.10;1.60;;;17.10;99.90;;;;;;5114347;28;20047;-87
2023/07/11 02:40:36;;;;;;;5.40;1.40;;;17.00;99.90;;;;;;5098457;28;20392;-87
2023/07/11 02:43:02;;;;;;;4.15;1.67;;;17.00;99.90;;;;;;5081382;28;20044;-87
2023/07/11 02:45:29;;;;;;;5.78;1.45;;;17.00;99.90;;;;;;5086418;28;20067;-87
2023/07/11 02:47:56;;;;;;;4.18;1.60;;;17.00;99.90;;;;;;5060545;28;20055;-87
2023/07/11 02:50:22;;;;;;;3.85;1.30;;;16.90;99.90;;;;;;5060956;28;20422;-87
2023/07/11 02:52:49;;;;;;;5.50;1.80;;;16.90;99.90;;;;;;5059941;28;20511;-87
2023/07/11 02:55:16;;;;;;;5.10;1.42;;;16.80;99.90;;;;;;5086158;28;20128;-88
2023/07/11 02:57:43;;;;;;;3.92;1.40;;;16.80;99.90;;;;;;5079592;28;20514;-87
2023/07/11 03:00:10;;;;;;;5.50;1.70;;;16.80;99.90;;;;;;5114302;28;20203;-86
2023/07/11 03:02:37;;;;;;;6.47;1.77;;;16.80;99.90;;;;;;5097135;28;20050;-87
2023/07/11 03:05:04;;;;;;;5.03;1.60;;;16.80;99.90;;;;;;5086875;28;20040;-87
2023/07/11 03:07:31;;;;;;;5.28;1.60;;;16.80;99.90;;;;;;5106314;28;20043;-87
2023/07/11 03:09:58;;;;;;;9.15;1.80;;;16.90;99.90;;;;;;5130318;28;20513;-87
2023/07/11 03:12:24;;;;;;;7.30;1.60;;;16.90;99.90;;;;;;5080776;28;20457;-87
2023/07/11 03:14:51;;;;;;;3.47;1.50;;;16.90;99.90;;;;;;5074668;28;20036;-87
2023/07/11 03:17:18;;;;;;;8.63;1.70;;;16.90;99.90;;;;;;5077033;28;20040;-87
2023/07/11 03:19:44;;;;;;;4.22;1.42;;;17.00;99.90;;;;;;5099895;28;20037;-86
2023/07/11 03:22:11;;;;;;;4.45;1.75;;;17.00;99.90;;;;;;5040346;28;20045;-87
2023/07/11 03:24:38;;;;;;;5.15;1.63;;;17.00;99.90;;;;;;5057560;28;20044;-87
2023/07/11 03:27:04;;;;;;;7.78;2.28;;;17.00;99.90;;;;;;5096193;28;20051;-87
2023/07/11 03:29:31;;;;;;;4.72;1.92;;;17.10;99.90;;;;;;5080867;28;20140;-87
2023/07/11 03:31:58;;;;;;;7.13;1.88;;;17.10;99.90;;;;;;5080181;28;20127;-87
2023/07/11 03:34:25;;;;;;;6.72;2.00;;;17.00;99.90;;;;;;5080583;28;20047;-87
2023/07/11 03:36:51;;;;;;;5.45;1.70;;;17.10;99.90;;;;;;5078380;28;20043;-87
2023/07/11 03:39:18;;;;;;;7.35;2.00;;;17.10;99.90;;;;;;5113415;28;20035;-87
2023/07/11 03:41:44;;;;;;;6.63;1.70;;;17.10;99.90;;;;;;5113645;28;20092;-87
2023/07/11 03:44:11;;;;;;;3.97;1.50;;;17.10;99.90;;;;;;5080246;28;20051;-88
2023/07/11 03:46:38;;;;;;;6.78;1.73;;;17.00;99.90;;;;;;5070021;28;20039;-87
2023/07/11 03:49:06;;;;;;;6.75;2.05;;;17.00;99.90;;;;;;5089233;28;20048;-87
2023/07/11 03:51:32;;;;;;;7.07;1.83;;;17.00;99.90;;;;;;5105877;28;20183;-87
2023/07/11 03:54:00;;;;;;;4.78;1.58;;;17.00;99.90;;;;;;5056467;28;20506;-87
2023/07/11 03:56:27;;;;;;;6.18;2.10;;;17.10;99.90;;;;;;5089466;28;20047;-87
2023/07/11 03:58:53;;;;;;;6.05;1.73;;;17.10;99.90;;;;;;5089514;28;20041;-87
2023/07/11 04:01:21;;;;;;;7.60;1.88;;;17.00;99.90;;;;;;5089056;28;20515;-86
2023/07/11 04:03:47;;;;;;;3.95;1.67;;;17.10;99.90;;;;;;5106189;28;20088;-87
2023/07/11 04:06:14;;;;;;;6.40;1.90;;;17.00;99.90;;;;;;5072253;28;20063;-87
2023/07/11 04:08:41;;;;;;;8.73;1.42;;;17.10;99.90;;;;;;5072815;28;20051;-87
2023/07/11 04:11:07;;;;;;;6.03;1.60;;;17.10;99.90;;;;;;5072223;28;20749;-87
2023/07/11 04:13:34;;;;;;;4.57;1.85;;;17.20;99.90;;;;;;5072496;28;20052;-87
2023/07/11 04:16:01;;;;;;;9.50;2.00;;;17.10;99.90;;;;;;5072226;28;20045;-87
2023/07/11 04:18:27;;;;;;;7.60;1.85;;;17.20;99.90;;;;;;5072953;28;20047;-87
2023/07/11 04:20:54;;;;;;;7.63;1.90;;;17.20;99.90;;;;;;5069769;28;20037;-88
2023/07/11 04:23:21;;;;;;;8.55;2.00;;;17.20;99.90;;;;;;5068953;28;20033;-87
2023/07/11 04:25:48;;;;;;;11.27;2.17;;;17.20;99.90;;;;;;5069277;28;20051;-87
2023/07/11 04:28:14;;;;;;;6.80;2.25;;;17.30;99.90;;;;;;5090838;28;20123;-87
2023/07/11 04:30:41;;;;;;;6.65;1.73;;;17.30;99.90;;;;;;5092626;28;20036;-87
2023/07/11 04:33:08;;;;;;;5.13;1.92;;;17.40;99.90;;;;;;5092298;28;20067;-88
2023/07/11 04:35:35;;;;;;;6.07;2.17;;;17.40;99.90;;;;;;5092438;28;20039;-87
2023/07/11 04:38:01;;;;;;;7.72;2.17;;;17.50;99.90;;;;;;5082915;28;20048;-87
2023/07/11 04:40:28;;;;;;;8.00;2.10;;;17.50;99.90;;;;;;5069413;28;20052;-86
2023/07/11 04:42:58;;;;;;;4.07;1.67;;;17.60;99.90;;;;;;5101999;28;20048;-87
2023/07/11 04:45:25;;;;;;;7.75;2.15;;;17.60;99.90;;;;;;5085135;28;20044;-87
2023/07/11 04:47:52;;;;;;;6.68;2.30;;;17.60;99.90;;;;;;5070626;28;20143;-87
2023/07/11 04:50:18;;;;;;;5.30;2.10;;;17.70;99.90;;;;;;5071920;28;20056;-87
2023/07/11 04:52:45;;;;;;;6.30;2.25;;;17.80;99.90;;;;;;5072237;28;20041;-88
2023/07/11 04:55:13;;;;;;;6.82;2.10;;;17.70;99.90;;;;;;5072011;28;20488;-87
2023/07/11 04:57:39;;;;;;;5.90;2.13;;;17.80;99.90;;;;;;5071951;28;20048;-86
2023/07/11 05:00:07;;;;;;;9.00;2.10;;;17.80;99.90;;;;;;5072483;28;20081;-87
2023/07/11 05:02:34;;;;;;;7.72;1.92;;;17.80;99.90;;;;;;5055460;28;20043;-87
2023/07/11 05:05:00;;;;;;;5.45;2.15;;;17.80;99.90;;;;;;5055918;28;20036;-87
2023/07/11 05:07:27;;;;;;;6.40;2.00;;;17.80;99.90;;;;;;5071994;28;20040;-88
2023/07/11 05:09:54;;;;;;;8.25;2.35;;;17.80;99.90;;;;;;5073440;28;20048;-87
2023/07/11 05:12:20;;;;;;;6.57;2.58;;;17.80;99.90;;;;;;5071433;28;20048;-87
2023/07/11 05:14:47;;;;;;;9.18;2.38;;;17.80;99.90;;;;;;5073604;28;20809;-87
2023/07/11 05:17:14;;;;;;;6.05;2.10;;;17.90;99.90;;;;;;5069183;28;20036;-87
2023/07/11 05:19:41;;;;;;;7.53;2.33;;;18.00;99.90;;;;;;5096078;28;20029;-87
2023/07/11 05:22:07;;;;;;;5.97;2.13;;;18.00;99.90;;;;;;5074889;28;20106;-86
2023/07/11 05:24:34;;;;;;;8.07;2.50;;;18.10;99.90;;;;;;5074822;28;20472;-87
2023/07/11 05:27:01;;;;;;;7.10;2.20;;;18.20;99.90;;;;;;5075815;28;20036;-87
2023/07/11 05:29:27;;;;;;;6.72;2.70;;;18.20;99.90;;;;;;5061754;28;20071;-87
2023/07/11 05:31:54;;;;;;;6.43;2.30;;;18.30;99.90;;;;;;5092007;28;20500;-86
2023/07/11 05:34:21;;;;;;;6.90;2.30;;;18.30;99.90;;;;;;5058526;28;20044;-87
2023/07/11 05:36:47;;;;;;;7.72;2.50;;;18.40;99.90;;;;;;5059259;28;20416;-87
2023/07/11 05:39:16;;;;;;;5.55;2.38;;;18.50;99.90;;;;;;5058632;28;20067;-87
2023/07/11 05:41:48;;;;;;;11.50;2.50;;;18.60;99.90;;;;;;5093496;28;20124;-87
2023/07/11 05:44:15;;;;;;;7.07;2.53;;;18.80;99.90;;;;;;5110546;28;20514;-87
2023/07/11 05:46:42;;;;;;;7.50;2.63;;;18.90;99.90;;;;;;5075427;28;20063;-86
2023/07/11 05:49:09;;;;;;;6.90;2.75;;;19.00;99.90;;;;;;5062824;28;20048;-88
2023/07/11 05:51:36;;;;;;;7.07;2.13;;;19.10;99.90;;;;;;5076758;28;20040;-87
2023/07/11 05:54:03;;;;;;;7.18;2.28;;;19.20;99.90;;;;;;5082131;28;20042;-87
2023/07/11 05:56:29;;;;;;;7.50;2.40;;;19.30;99.90;;;;;;5098333;28;20054;-87
2023/07/11 05:58:57;;;;;;;6.13;2.47;;;19.50;99.90;;;;;;5099157;28;20073;-87
2023/07/11 06:01:27;;;;;;;6.65;2.30;;;19.50;99.90;;;;;;5077455;28;20042;-87
2023/07/11 06:04:09;;;;;;;7.25;2.40;;;19.60;99.90;;;;;;5113076;28;20047;-87
2023/07/11 06:06:41;;;;;;;7.05;2.05;;;19.80;99.90;;;;;;5115369;28;20048;-87
2023/07/11 06:09:16;;;;;;;5.53;2.60;;;19.90;99.90;;;;;;5099673;28;20154;-88
2023/07/11 06:11:44;;;;;;;7.03;2.55;;;20.00;99.90;;;;;;5132360;28;20043;-87
2023/07/11 06:14:11;;;;;;;3.58;1.90;;;20.10;99.90;;;;;;5115705;28;20075;-92
2023/07/11 06:16:39;;;;;;;4.88;1.92;;;20.20;99.90;;;;;;5082690;28;20167;-89
2023/07/11 06:19:06;;;;;;;6.30;2.60;;;20.20;99.90;;;;;;5100372;28;20088;-90
2023/07/11 06:21:33;;;;;;;6.38;2.50;;;20.20;99.90;;;;;;5083689;28;20051;-90
2023/07/11 06:23:59;;;;;;;6.72;2.72;;;20.30;99.90;;;;;;5083150;28;20036;-89
2023/07/11 06:26:26;;;;;;;7.30;2.13;;;20.30;99.90;;;;;;5083177;28;20396;-89
2023/07/11 06:28:54;;;;;;;6.88;1.90;;;20.40;99.90;;;;;;5115356;28;20047;-89
2023/07/11 06:31:20;;;;;;;6.22;2.60;;;20.50;99.90;;;;;;5098966;28;20082;-88
2023/07/11 06:33:47;;;;;;;6.85;2.58;;;20.60;99.90;;;;;;5076691;28;20055;-90
2023/07/11 06:36:14;;;;;;;4.22;2.10;;;20.70;99.90;;;;;;5096638;28;20044;-89
2023/07/11 06:38:41;;;;;;;7.65;2.28;;;20.80;99.90;;;;;;5079412;28;20036;-90
2023/07/11 06:41:08;;;;;;;8.73;2.50;;;20.90;99.90;;;;;;5081911;28;20123;-90
2023/07/11 06:43:35;;;;;;;6.28;2.25;;;21.00;99.90;;;;;;5113107;28;20085;-90
2023/07/11 06:46:02;;;;;;;5.93;2.20;;;21.10;99.90;;;;;;5100212;28;20036;-89
2023/07/11 06:48:31;;;;;;;4.95;2.15;;;21.20;99.90;;;;;;5105181;28;20052;-89
2023/07/11 06:51:03;;;;;;;6.35;2.17;;;21.30;99.90;;;;;;5112401;28;20581;-89
2023/07/11 06:53:33;;;;;;;7.38;2.25;;;21.40;99.90;;;;;;5085170;28;20031;-90
2023/07/11 06:56:00;;;;;;;5.90;2.25;;;21.50;99.90;;;;;;5107511;28;20044;-90
2023/07/11 06:58:27;;;;;;;4.85;2.15;;;21.60;99.90;;;;;;5116142;28;20089;-90
2023/07/11 07:01:05;;;;;;;5.78;2.08;;;21.70;99.90;;;;;;5132778;28;20050;-89
2023/07/11 07:03:33;;;;;;;5.82;2.17;;;21.70;99.90;;;;;;5114087;28;20046;-88
2023/07/11 07:06:06;;;;;;;5.13;2.13;;;21.70;99.90;;;;;;5112077;28;20036;-88
2023/07/11 07:08:33;;;;;;;4.78;2.25;;;21.80;99.90;;;;;;5129085;28;20531;-91
2023/07/11 07:11:00;;;;;;;5.65;2.20;;;21.80;99.90;;;;;;5095240;28;20128;-88
2023/07/11 07:13:27;;;;;;;6.50;2.42;;;21.80;99.90;;;;;;5111324;28;20035;-87
2023/07/11 07:15:57;;;;;;;8.38;2.40;;;21.80;99.90;;;;;;5097507;28;20039;-90
2023/07/11 07:18:25;;;;;;;6.45;2.38;;;21.90;99.90;;;;;;5115175;28;20071;-87
2023/07/11 07:20:53;;;;;;;4.97;2.15;;;22.00;99.90;;;;;;5114915;28;20490;-90
2023/07/11 07:23:20;;;;;;;6.38;2.10;;;22.10;99.90;;;;;;5098469;28;20031;-90
2023/07/11 07:25:52;;;;;;;5.78;2.60;;;22.30;99.90;;;;;;5115213;28;20035;-91
2023/07/11 07:28:19;;;;;;;3.75;1.92;;;22.40;99.90;;;;;;5099608;28;20036;-91
2023/07/11 07:30:47;;;;;;;6.50;2.20;;;22.60;99.90;;;;;;5099865;28;20093;-92
2023/07/11 07:33:14;;;;;;;6.43;2.38;;;22.60;99.90;;;;;;5133732;28;20476;-91
2023/07/11 07:35:41;;;;;;;5.47;2.10;;;22.70;99.90;;;;;;5081596;28;20047;-89
2023/07/11 07:38:09;;;;;;;5.05;2.30;;;22.70;99.90;;;;;;5081097;28;20082;-91
2023/07/11 07:40:40;;;;;;;5.75;2.28;;;22.80;99.90;;;;;;5096456;28;20079;-91
2023/07/11 07:43:06;;;;;;;4.60;2.25;;;22.90;99.90;;;;;;5096352;28;20044;-91
2023/07/11 07:45:33;;;;;;;8.10;2.22;;;23.00;99.90;;;;;;5090224;28;20046;-92
2023/07/11 07:48:00;;;;;;;6.68;2.30;;;23.10;99.90;;;;;;5078833;28;20044;-91
2023/07/11 07:50:27;;;;;;;5.88;2.20;;;23.20;99.90;;;;;;5086179;28;20053;-90
2023/07/11 07:52:53;;;;;;;6.13;2.67;;;23.30;99.90;;;;;;5054949;28;20056;-90
2023/07/11 07:55:20;;;;;;;6.45;2.45;;;23.40;99.90;;;;;;5054865;28;20037;-89
2023/07/11 07:57:47;;;;;;;5.30;2.40;;;23.40;99.90;;;;;;5071133;28;20059;-90
2023/07/11 08:00:14;;;;;;;6.55;2.53;;;23.50;99.90;;;;;;5071121;28;20037;-89
2023/07/11 08:02:42;;;;;;;5.35;2.05;;;23.50;99.90;;;;;;5071008;28;20077;-90
2023/07/11 08:05:09;;;;;;;6.32;2.40;;;23.60;99.90;;;;;;5071832;28;20084;-89
2023/07/11 08:07:35;;;;;;;9.60;2.25;;;23.60;99.90;;;;;;5070844;28;20520;-90
2023/07/11 08:10:02;;;;;;;10.13;2.40;;;23.70;99.90;;;;;;5071125;28;20045;-90
2023/07/11 08:12:29;;;;;;;9.82;2.28;;;23.70;99.90;;;;;;5071373;28;20044;-91
2023/07/11 08:14:56;;;;;;;7.97;2.65;;;23.70;99.90;;;;;;5070907;28;20120;-90
2023/07/11 08:17:22;;;;;;;7.97;2.20;;;23.80;99.90;;;;;;5071399;28;20166;-90
2023/07/11 08:19:49;;;;;;;6.30;2.42;;;24.00;99.90;;;;;;5070952;28;20113;-89
2023/07/11 08:22:16;;;;;;;5.22;2.42;;;24.10;99.90;;;;;;5070845;28;20098;-91
2023/07/11 08:24:42;;;;;;;6.70;2.00;;;24.20;99.90;;;;;;5070538;28;20037;-90
2023/07/11 08:27:09;;;;;;;5.47;2.33;;;24.20;99.90;;;;;;5082394;28;20792;-90
2023/07/11 08:29:37;;;;;;;8.98;2.50;;;24.20;99.90;;;;;;5070525;28;20101;-91
2023/07/11 08:32:05;;;;;;;6.00;2.38;;;24.30;99.90;;;;;;5103637;28;20049;-91
2023/07/11 08:34:31;;;;;;;4.97;2.17;;;24.30;99.90;;;;;;5070933;28;20063;-91
2023/07/11 08:36:58;;;;;;;7.70;2.55;;;24.30;99.90;;;;;;5038004;28;20049;-91
2023/07/11 08:39:26;;;;;;;7.80;2.40;;;24.40;99.90;;;;;;5038814;28;20049;-92
2023/07/11 08:41:55;;;;;;;5.53;2.20;;;24.50;99.90;;;;;;5037567;28;20036;-90
2023/07/11 08:44:45;;;;;;;7.20;2.63;;;24.60;99.90;;;;;;5070219;28;20451;-88
2023/07/11 08:47:19;;;;;;;7.47;2.33;;;24.70;99.90;;;;;;5088678;28;20037;-89
2023/07/11 08:49:52;;;;;;;6.72;2.33;;;25.00;99.90;;;;;;5090111;28;20044;-91
2023/07/11 08:52:21;;;;;;;5.57;2.20;;;25.10;99.90;;;;;;5073127;28;20045;-91
2023/07/11 08:55:01;;;;;;;5.20;2.10;;;25.20;99.90;;;;;;5090551;28;20041;-92
2023/07/11 08:57:32;;;;;;;7.45;2.28;;;25.40;99.90;;;;;;5090626;28;20054;-91
2023/07/11 09:00:08;;;;;;;6.70;2.30;;;25.60;99.90;;;;;;5090434;28;20041;-91
2023/07/11 09:02:59;;;;;;;5.70;2.22;;;25.70;99.90;;;;;;5090917;28;20484;-91
2023/07/11 09:05:47;;;;;;;6.13;2.10;;;25.70;99.90;;;;;;5090974;28;20044;-90
2023/07/11 09:08:17;;;;;;;5.53;2.10;;;25.60;99.90;;;;;;5109804;28;20031;-91
2023/07/11 09:10:47;;;;;;;6.10;2.00;;;25.80;99.90;;;;;;5114157;28;20039;-90
2023/07/11 09:13:28;;;;;;;5.53;2.22;;;25.90;99.90;;;;;;5131608;28;20043;-91
2023/07/11 09:16:17;;;;;;;5.05;2.10;;;25.90;99.90;;;;;;5130717;28;20535;-91
2023/07/11 09:18:59;;;;;;;5.93;2.25;;;26.00;99.90;;;;;;5101974;28;20070;-92
2023/07/11 09:21:31;;;;;;;6.00;2.03;;;26.10;99.90;;;;;;5131152;28;20040;-92
2023/07/11 09:24:32;;;;;;;6.22;2.28;;;26.20;99.90;;;;;;5131153;28;20048;-93
2023/07/11 09:27:22;;;;;;;4.35;2.08;;;26.40;99.90;;;;;;5114073;28;20134;-93
2023/07/11 09:29:49;;;;;;;5.43;2.25;;;26.60;99.90;;;;;;5123903;28;20420;-88
2023/07/11 09:32:17;;;;;;;5.28;2.20;;;26.70;99.90;;;;;;5073512;28;20131;-91
2023/07/11 09:34:47;;;;;;;4.68;1.98;;;27.00;99.90;;;;;;5073721;28;20044;-93
2023/07/11 09:37:32;;;;;;;4.70;2.08;;;27.10;99.90;;;;;;5093799;28;20042;-88
2023/07/11 09:40:11;;;;;;;4.80;2.00;;;27.30;99.90;;;;;;5093967;28;20036;-89
2023/07/11 09:42:53;;;;;;;7.70;2.03;;;27.40;99.90;;;;;;5093519;28;20040;-88
2023/07/11 09:45:24;;;;;;;7.03;2.10;;;27.30;99.90;;;;;;5093256;28;20036;-88
2023/07/11 09:47:58;;;;;;;6.18;2.05;;;27.30;99.90;;;;;;5093731;28;20048;-89
2023/07/11 09:50:44;;;;;;;3.97;1.97;;;27.40;99.90;;;;;;5093475;28;20492;-89
2023/07/11 09:53:26;;;;;;;5.90;1.75;;;27.40;99.90;;;;;;5094508;28;20047;-90
2023/07/11 09:55:59;;;;;;;5.68;2.10;;;27.40;99.90;;;;;;5094536;28;20047;-93
2023/07/11 09:58:32;;;;;;;7.40;2.10;;;27.40;99.90;;;;;;5094396;28;20032;-93
2023/07/11 10:01:07;;;;;;;5.53;1.90;;;27.50;99.90;;;;;;5093539;28;20035;-92
2023/07/11 10:03:37;;;;;;;5.10;1.75;;;27.40;99.90;;;;;;5080611;28;20040;-93
2023/07/11 10:06:29;;;;;;;7.07;1.90;;;27.50;99.90;;;;;;5098885;28;20044;-92
2023/07/11 10:08:56;;;;;;;7.30;2.20;;;27.50;99.90;;;;;;5100832;28;20033;-91
2023/07/11 10:11:23;;;;;;;5.15;2.00;;;27.40;99.90;;;;;;5118482;28;20035;-87
2023/07/11 10:13:59;;;;;;;6.05;2.13;;;27.30;99.90;;;;;;5117726;28;20039;-91
2023/07/11 10:16:32;;;;;;;5.25;1.80;;;27.20;99.90;;;;;;5101628;28;20039;-89
2023/07/11 10:18:59;;;;;;;8.18;2.10;;;27.20;98.50;;;;;;5117748;28;20446;-90
2023/07/11 10:21:31;;;;;;;6.72;1.90;;;27.20;99.90;;;;;;5099288;28;20039;-90
2023/07/11 10:23:58;;;;;;;7.00;1.95;;;27.20;99.50;;;;;;5096548;28;20040;-87
2023/07/11 10:26:27;;;;;;;6.93;1.90;;;27.20;99.90;;;;;;5080457;28;20062;-90
2023/07/11 10:29:00;;;;;;;5.88;1.80;;;27.30;99.40;;;;;;5080696;28;20040;-91
2023/07/11 10:31:32;;;;;;;4.70;2.00;;;27.50;99.90;;;;;;5097902;28;20040;-91
2023/07/11 10:34:22;;;;;;;5.63;1.85;;;27.60;99.90;;;;;;5097509;28;20095;-91
2023/07/11 10:36:54;;;;;;;5.35;1.77;;;27.70;98.60;;;;;;5093758;28;20067;-92
2023/07/11 10:39:31;;;;;;;5.57;1.90;;;27.70;99.90;;;;;;5094415;28;20488;-93
2023/07/11 10:42:05;;;;;;;5.00;2.10;;;27.90;98.60;;;;;;5106980;28;20039;-85
2023/07/11 10:44:41;;;;;;;8.60;1.93;;;27.90;99.10;;;;;;5113637;28;20044;-88
2023/07/11 10:47:09;;;;;;;4.10;1.90;;;28.00;98.70;;;;;;5115279;28;20333;-91
2023/07/11 10:49:50;;;;;;;5.93;2.20;;;27.90;98.30;;;;;;5104343;28;20154;-88
2023/07/11 10:52:23;;;;;;;5.00;1.60;;;28.00;99.20;;;;;;5113909;28;20110;-92
2023/07/11 10:55:13;;;;;;;6.43;1.90;;;28.20;98.40;;;;;;5096377;28;20045;-94
2023/07/11 10:57:50;;;;;;;5.20;1.92;;;28.30;98.80;;;;;;5097857;28;20043;-92
2023/07/11 11:00:57;;;;;;;5.15;1.65;;;28.50;98.60;;;;;;5097740;28;20036;-91
2023/07/11 11:03:41;;;;;;;4.55;2.00;;;28.50;98.50;;;;;;5083371;28;20045;-92
2023/07/11 11:06:50;;;;;;;5.75;1.67;;;28.60;98.30;;;;;;5105367;28;20134;-93
2023/07/11 11:09:38;;;;;;;6.00;2.15;;;28.70;97.50;;;;;;5134638;28;20474;-92
2023/07/11 11:12:28;;;;;;;10.40;1.90;;;28.60;96.40;;;;;;5107266;28;20039;-92
2023/07/11 11:15:06;;;;;;;3.97;1.58;;;28.80;96.70;;;;;;5115756;28;20051;-92
2023/07/11 11:18:08;;;;;;;6.40;1.63;;;29.00;97.70;;;;;;5117214;28;20036;-91
2023/07/11 11:20:53;;;;;;;6.57;1.73;;;29.10;96.20;;;;;;5116865;28;20035;-92
2023/07/11 11:23:35;;;;;;;3.97;1.60;;;29.10;97.20;;;;;;5116950;28;20035;-91
2023/07/11 11:26:11;;;;;;;4.93;1.50;;;29.20;96.20;;;;;;5133703;28;20031;-92
2023/07/11 11:29:05;;;;;;;4.40;1.60;;;29.20;95.20;;;;;;5133797;28;20050;-92
2023/07/11 11:31:34;;;;;;;4.20;1.60;;;29.30;96.50;;;;;;5116778;28;20036;-92
2023/07/11 11:34:51;;;;;;;4.15;1.60;;;29.40;96.80;;;;;;5115690;28;20044;-93
2023/07/11 11:37:36;;;;;;;4.57;1.42;;;29.30;96.40;;;;;;5054706;28;20051;-91
2023/07/11 11:40:16;;;;;;;6.28;1.80;;;29.10;95.90;;;;;;5075213;28;20041;-92
2023/07/11 11:42:44;;;;;;;7.03;1.40;;;28.80;95.60;;;;;;5078526;28;20036;-91
2023/07/11 11:45:19;;;;;;;3.40;1.63;;;28.90;96.70;;;;;;5095349;28;20090;-90
2023/07/11 11:47:46;;;;;;;4.40;1.80;;;29.10;97.20;;;;;;5095966;28;20060;-92
2023/07/11 11:50:16;;;;;;;3.55;1.45;;;29.10;96.90;;;;;;5096218;28;20044;-91
2023/07/11 11:52:44;;;;;;;3.35;1.60;;;29.30;96.80;;;;;;5095565;28;20040;-91
2023/07/11 11:55:36;;;;;;;4.47;1.70;;;29.50;96.80;;;;;;5079396;28;20035;-91
2023/07/11 11:58:04;;;;;;;8.13;1.88;;;29.60;96.50;;;;;;5095402;28;20477;-92
2023/07/11 12:00:31;;;;;;;3.58;1.40;;;29.50;96.70;;;;;;5097083;28;20040;-91
2023/07/11 12:02:58;;;;;;;5.93;1.63;;;29.60;96.90;;;;;;5112601;28;20054;-93
2023/07/11 12:05:25;;;;;;;6.22;1.63;;;29.60;96.60;;;;;;5096264;28;20036;-92
2023/07/11 12:08:37;;;;;;;7.50;1.77;;;29.60;96.70;;;;;;5077855;28;20040;-91
2023/07/11 12:11:09;;;;;;;7.20;1.88;;;29.60;95.50;;;;;;5101058;28;20056;-93
2023/07/11 12:13:43;;;;;;;6.03;1.70;;;29.60;96.50;;;;;;5112875;28;20040;-94
2023/07/11 12:16:22;;;;;;;8.10;1.73;;;29.50;95.60;;;;;;5112640;28;20066;-93
2023/07/11 12:19:28;;;;;;;4.50;1.65;;;29.50;96.90;;;;;;5113036;28;20146;-93
2023/07/11 12:22:04;;;;;;;4.72;1.63;;;29.60;96.80;;;;;;5110809;28;20044;-91
2023/07/11 12:24:37;;;;;;;3.58;1.50;;;29.60;95.80;;;;;;5111429;28;20575;-92
2023/07/11 12:27:15;;;;;;;4.75;1.63;;;29.40;96.60;;;;;;5111446;28;20048;-93
2023/07/11 12:29:51;;;;;;;4.60;1.50;;;29.30;96.00;;;;;;5112948;28;20130;-93
2023/07/11 12:32:48;;;;;;;3.67;1.30;;;29.30;96.00;;;;;;5096033;28;20040;-92
2023/07/11 12:35:19;;;;;;;4.22;1.80;;;29.20;96.00;;;;;;5118771;28;20042;-93
2023/07/11 12:38:01;;;;;;;4.65;1.50;;;29.20;96.50;;;;;;5113607;28;20032;-92
2023/07/11 12:40:36;;;;;;;4.35;2.00;;;28.90;95.90;;;;;;5113104;28;20511;-93
2023/07/11 12:43:24;;;;;;;4.03;1.50;;;28.90;96.50;;;;;;5112844;28;20114;-92
2023/07/11 12:46:13;;;;;;;3.40;1.42;;;29.00;96.60;;;;;;5094428;28;20055;-90
2023/07/11 12:48:45;;;;;;;3.90;1.45;;;29.10;96.90;;;;;;5080397;28;20056;-90
2023/07/11 12:51:26;;;;;;;5.05;1.30;;;29.00;95.60;;;;;;5094905;28;20047;-90
2023/07/11 12:54:00;;;;;;;4.65;1.50;;;29.10;96.30;;;;;;5093991;28;20036;-93
2023/07/11 12:56:30;;;;;;;5.25;1.60;;;29.20;96.30;;;;;;5079003;28;20039;-93
2023/07/11 12:58:56;;;;;;;5.68;1.25;;;29.30;97.00;;;;;;5094862;28;20043;-89
2023/07/11 13:01:24;;;;;;;3.40;1.50;;;29.20;96.70;;;;;;5061652;28;20073;-91
2023/07/11 13:03:51;;;;;;;3.78;1.30;;;29.20;96.60;;;;;;5078001;28;20044;-89